San Isidro del General, Costa Rica
Current Conditions -  °F | °C
As of 12:00 AM on Saturday 29 Nov 2014 (Local Time) from MROC Reporting Station
Few Clouds Few Clouds  
Wind Chill: 70°   Ceiling: Unl
Heat Index: 70°   Visibility: 6mi
Dew Point: 61°   Wind: 14mph
Humidity: 73%   Direction: 100°E
Pressure: 29.94"   Gusts: 25mph
Location:  9.38°N, 83.7°W
Report Text: MROC 290600Z 10012G22KT 9999 FEW035 21/16 A2994 NOSIG
Loading
Personal Weather Stations






























Interactive Weather Map New forecast layout! Learn more

10-Day Weather Forecast

Advertisements
Track Severe Weather on mobile